Hauptseite
METAR-TAF:

METAR-TAF

Flughäfen :

Militärflugplatz

Tafraoui, Algerien

Breite: 35-32-33N, Länge: 000-31-56W, Höhe: 112 m

Beobachtung

Neuester Wetterbericht von vor 1 Stunde und 13 Minuten, um 11:00 UTC
Wind 6 kt aus Ost
Temperatur 20°C
Luftfeuchtigkeit 60%
Luftdruck 1022 hPa
Sichtweite: 6000 m
Leicht bewölkt in der Höhe von 2600 ft
Aufgelockert bewölkt in der Höhe von 20000 ft

METAR: DAOL 081100Z 08006KT 6000 FEW026 SCT200 20/12 Q1022

Zeit: 13:13 (12:13 UTC)


TAF: fehlend

Wetterbeobachtungen und Prognosen von mehr als 4000 Flughäfen (METAR und TAF Bericht).

Die verfügbaren Stationen werden durch gelbe und rote Markierungen auf der Karte dargestellt.

Führen Sie die Maus auf sie, um den Namen der Station zu sehen.

Darauf klicken, um die Beobachtung von Wetterbeobachtungen und Prognosen zu sehen.

Um die Karte zu ändern : klicken Sie auf den grünen Tasten mit einem schwarzen Kreuz Zum Vergrößern, auf den grünen Button mit einem Gedankenstrich zu verkleinern, oder auf die grünen Pfeile für benachbarte Karten.


METAR-TAF: